sensor_id;sensor_type;location;lat;lon;timestamp;temperature;humidity
44223;DHT22;29895;48.804;9.386;2023-08-08T00:01:54;13.30;99.90
44223;DHT22;29895;48.804;9.386;2023-08-08T00:04:19;13.20;99.90
44223;DHT22;29895;48.804;9.386;2023-08-08T00:06:45;13.30;99.90
44223;DHT22;29895;48.804;9.386;2023-08-08T00:09:10;13.30;99.90
44223;DHT22;29895;48.804;9.386;2023-08-08T00:11:36;13.30;99.90
44223;DHT22;29895;48.804;9.386;2023-08-08T00:14:02;13.30;99.90
44223;DHT22;29895;48.804;9.386;2023-08-08T00:16:28;13.20;99.90
44223;DHT22;29895;48.804;9.386;2023-08-08T00:18:53;13.10;99.90
44223;DHT22;29895;48.804;9.386;2023-08-08T00:21:20;13.00;99.90
44223;DHT22;29895;48.804;9.386;2023-08-08T00:23:46;13.00;99.90
44223;DHT22;29895;48.804;9.386;2023-08-08T00:26:12;13.10;99.90
44223;DHT22;29895;48.804;9.386;2023-08-08T00:28:37;13.20;99.90
44223;DHT22;29895;48.804;9.386;2023-08-08T00:31:03;13.40;99.90
44223;DHT22;29895;48.804;9.386;2023-08-08T00:33:29;13.50;99.90
44223;DHT22;29895;48.804;9.386;2023-08-08T00:35:54;13.60;99.90
44223;DHT22;29895;48.804;9.386;2023-08-08T00:38:20;13.60;99.90
44223;DHT22;29895;48.804;9.386;2023-08-08T00:40:46;13.50;99.90
44223;DHT22;29895;48.804;9.386;2023-08-08T00:43:11;13.50;99.90
44223;DHT22;29895;48.804;9.386;2023-08-08T00:45:38;13.50;99.90
44223;DHT22;29895;48.804;9.386;2023-08-08T00:48:05;13.50;99.90
44223;DHT22;29895;48.804;9.386;2023-08-08T00:50:31;13.50;99.90
44223;DHT22;29895;48.804;9.386;2023-08-08T00:52:57;13.50;99.90
44223;DHT22;29895;48.804;9.386;2023-08-08T00:55:23;13.40;99.90
44223;DHT22;29895;48.804;9.386;2023-08-08T00:57:48;13.40;99.90
44223;DHT22;29895;48.804;9.386;2023-08-08T01:00:14;13.40;99.90
44223;DHT22;29895;48.804;9.386;2023-08-08T01:02:40;13.50;99.90
44223;DHT22;29895;48.804;9.386;2023-08-08T01:05:09;13.50;99.90
44223;DHT22;29895;48.804;9.386;2023-08-08T01:07:52;13.50;99.90
44223;DHT22;29895;48.804;9.386;2023-08-08T01:10:28;13.50;99.90
44223;DHT22;29895;48.804;9.386;2023-08-08T01:13:02;13.50;99.90
44223;DHT22;29895;48.804;9.386;2023-08-08T01:15:29;13.40;99.90
44223;DHT22;29895;48.804;9.386;2023-08-08T01:17:57;13.50;99.90
44223;DHT22;29895;48.804;9.386;2023-08-08T01:20:23;13.50;99.90
44223;DHT22;29895;48.804;9.386;2023-08-08T01:23:17;13.50;99.90
44223;DHT22;29895;48.804;9.386;2023-08-08T01:25:44;13.50;99.90
44223;DHT22;29895;48.804;9.386;2023-08-08T01:28:11;13.50;99.90
44223;DHT22;29895;48.804;9.386;2023-08-08T01:30:37;13.50;99.90
44223;DHT22;29895;48.804;9.386;2023-08-08T01:33:03;13.40;99.90
44223;DHT22;29895;48.804;9.386;2023-08-08T01:35:31;13.50;99.90
44223;DHT22;29895;48.804;9.386;2023-08-08T01:38:06;13.50;99.90
44223;DHT22;29895;48.804;9.386;2023-08-08T01:40:34;13.60;99.90
44223;DHT22;29895;48.804;9.386;2023-08-08T01:43:00;13.70;99.90
44223;DHT22;29895;48.804;9.386;2023-08-08T01:45:27;13.80;99.90
44223;DHT22;29895;48.804;9.386;2023-08-08T01:47:52;13.80;99.90
44223;DHT22;29895;48.804;9.386;2023-08-08T01:50:19;13.70;99.90
44223;DHT22;29895;48.804;9.386;2023-08-08T01:52:46;13.70;99.90
44223;DHT22;29895;48.804;9.386;2023-08-08T01:55:12;13.70;99.90
44223;DHT22;29895;48.804;9.386;2023-08-08T01:57:38;13.70;99.90
44223;DHT22;29895;48.804;9.386;2023-08-08T02:00:05;13.60;99.90
44223;DHT22;29895;48.804;9.386;2023-08-08T02:02:31;13.70;99.90
44223;DHT22;29895;48.804;9.386;2023-08-08T02:04:57;13.70;99.90
44223;DHT22;29895;48.804;9.386;2023-08-08T02:07:23;13.80;99.90
44223;DHT22;29895;48.804;9.386;2023-08-08T02:09:48;13.90;99.90
44223;DHT22;29895;48.804;9.386;2023-08-08T02:12:16;14.00;99.90
44223;DHT22;29895;48.804;9.386;2023-08-08T02:14:42;14.00;99.90
44223;DHT22;29895;48.804;9.386;2023-08-08T02:17:07;13.90;99.90
44223;DHT22;29895;48.804;9.386;2023-08-08T02:19:33;13.80;99.90
44223;DHT22;29895;48.804;9.386;2023-08-08T02:21:59;13.80;99.90
44223;DHT22;29895;48.804;9.386;2023-08-08T02:24:24;13.70;99.90
44223;DHT22;29895;48.804;9.386;2023-08-08T02:26:50;13.70;99.90
44223;DHT22;29895;48.804;9.386;2023-08-08T02:29:15;13.80;99.90
44223;DHT22;29895;48.804;9.386;2023-08-08T02:31:41;13.80;99.90
44223;DHT22;29895;48.804;9.386;2023-08-08T02:34:07;13.70;99.90
44223;DHT22;29895;48.804;9.386;2023-08-08T02:36:32;13.70;99.90
44223;DHT22;29895;48.804;9.386;2023-08-08T02:38:58;13.80;99.90
44223;DHT22;29895;48.804;9.386;2023-08-08T02:41:24;13.80;99.90
44223;DHT22;29895;48.804;9.386;2023-08-08T02:43:50;13.80;99.90
44223;DHT22;29895;48.804;9.386;2023-08-08T02:46:16;13.80;99.90
44223;DHT22;29895;48.804;9.386;2023-08-08T02:48:41;13.90;99.90
44223;DHT22;29895;48.804;9.386;2023-08-08T02:51:07;13.90;99.90
44223;DHT22;29895;48.804;9.386;2023-08-08T02:53:33;13.90;99.90
44223;DHT22;29895;48.804;9.386;2023-08-08T02:55:58;13.90;99.90
44223;DHT22;29895;48.804;9.386;2023-08-08T02:58:24;13.90;99.90
44223;DHT22;29895;48.804;9.386;2023-08-08T03:00:50;13.90;99.90
44223;DHT22;29895;48.804;9.386;2023-08-08T03:03:15;13.80;99.90
44223;DHT22;29895;48.804;9.386;2023-08-08T03:05:41;13.80;99.90
44223;DHT22;29895;48.804;9.386;2023-08-08T03:08:06;13.80;99.90
44223;DHT22;29895;48.804;9.386;2023-08-08T03:10:32;13.70;99.90
44223;DHT22;29895;48.804;9.386;2023-08-08T03:12:58;13.60;99.90
44223;DHT22;29895;48.804;9.386;2023-08-08T03:15:23;13.50;99.90
44223;DHT22;29895;48.804;9.386;2023-08-08T03:17:49;13.40;99.90
44223;DHT22;29895;48.804;9.386;2023-08-08T03:20:15;13.20;99.90
44223;DHT22;29895;48.804;9.386;2023-08-08T03:22:40;13.10;99.90
44223;DHT22;29895;48.804;9.386;2023-08-08T03:25:06;13.00;99.90
44223;DHT22;29895;48.804;9.386;2023-08-08T03:27:32;12.90;99.90
44223;DHT22;29895;48.804;9.386;2023-08-08T03:29:58;12.90;99.90
44223;DHT22;29895;48.804;9.386;2023-08-08T03:32:23;12.90;99.90
44223;DHT22;29895;48.804;9.386;2023-08-08T03:34:49;12.90;99.90
44223;DHT22;29895;48.804;9.386;2023-08-08T03:37:15;12.80;99.90
44223;DHT22;29895;48.804;9.386;2023-08-08T03:39:41;12.70;99.90
44223;DHT22;29895;48.804;9.386;2023-08-08T03:42:06;12.70;99.90
44223;DHT22;29895;48.804;9.386;2023-08-08T03:44:32;12.70;99.90
44223;DHT22;29895;48.804;9.386;2023-08-08T03:46:58;12.60;99.90
44223;DHT22;29895;48.804;9.386;2023-08-08T03:49:23;12.60;99.90
44223;DHT22;29895;48.804;9.386;2023-08-08T03:51:49;12.70;99.90
44223;DHT22;29895;48.804;9.386;2023-08-08T03:54:15;12.70;99.90
44223;DHT22;29895;48.804;9.386;2023-08-08T03:56:41;12.80;99.90
44223;DHT22;29895;48.804;9.386;2023-08-08T03:59:06;12.80;99.90
44223;DHT22;29895;48.804;9.386;2023-08-08T04:01:32;12.90;99.90
44223;DHT22;29895;48.804;9.386;2023-08-08T04:03:58;13.00;99.90
44223;DHT22;29895;48.804;9.386;2023-08-08T04:06:24;13.10;99.90
44223;DHT22;29895;48.804;9.386;2023-08-08T04:08:49;13.10;99.90
44223;DHT22;29895;48.804;9.386;2023-08-08T04:11:15;13.10;99.90
44223;DHT22;29895;48.804;9.386;2023-08-08T04:13:41;13.10;99.90
44223;DHT22;29895;48.804;9.386;2023-08-08T04:16:06;13.20;99.90
44223;DHT22;29895;48.804;9.386;2023-08-08T04:18:32;13.30;99.90
44223;DHT22;29895;48.804;9.386;2023-08-08T04:20:58;13.40;99.90
44223;DHT22;29895;48.804;9.386;2023-08-08T04:23:23;13.30;99.90
44223;DHT22;29895;48.804;9.386;2023-08-08T04:25:51;13.40;99.90
44223;DHT22;29895;48.804;9.386;2023-08-08T04:28:17;13.40;99.90
44223;DHT22;29895;48.804;9.386;2023-08-08T04:30:43;13.40;99.90
44223;DHT22;29895;48.804;9.386;2023-08-08T04:33:09;13.50;99.90
44223;DHT22;29895;48.804;9.386;2023-08-08T04:35:35;13.50;99.90
44223;DHT22;29895;48.804;9.386;2023-08-08T04:38:00;13.60;99.90
44223;DHT22;29895;48.804;9.386;2023-08-08T04:40:26;13.60;99.90
44223;DHT22;29895;48.804;9.386;2023-08-08T04:42:52;13.60;99.90
44223;DHT22;29895;48.804;9.386;2023-08-08T04:45:18;13.50;99.90
44223;DHT22;29895;48.804;9.386;2023-08-08T04:47:43;13.50;99.90
44223;DHT22;29895;48.804;9.386;2023-08-08T04:50:10;13.50;99.90
44223;DHT22;29895;48.804;9.386;2023-08-08T04:52:36;13.40;99.90
44223;DHT22;29895;48.804;9.386;2023-08-08T04:55:02;13.40;99.90
44223;DHT22;29895;48.804;9.386;2023-08-08T04:57:27;13.30;99.90
44223;DHT22;29895;48.804;9.386;2023-08-08T04:59:53;13.30;99.90
44223;DHT22;29895;48.804;9.386;2023-08-08T05:02:18;13.30;99.90
44223;DHT22;29895;48.804;9.386;2023-08-08T05:04:44;13.40;99.90
44223;DHT22;29895;48.804;9.386;2023-08-08T05:07:10;13.60;99.90
44223;DHT22;29895;48.804;9.386;2023-08-08T05:09:35;14.00;99.90
44223;DHT22;29895;48.804;9.386;2023-08-08T05:12:01;14.30;99.90
44223;DHT22;29895;48.804;9.386;2023-08-08T05:14:27;14.50;99.90
44223;DHT22;29895;48.804;9.386;2023-08-08T05:16:53;14.70;99.90
44223;DHT22;29895;48.804;9.386;2023-08-08T05:19:18;14.90;99.90
44223;DHT22;29895;48.804;9.386;2023-08-08T05:21:44;14.90;99.90
44223;DHT22;29895;48.804;9.386;2023-08-08T05:24:10;14.90;99.90
44223;DHT22;29895;48.804;9.386;2023-08-08T05:26:35;15.00;99.90
44223;DHT22;29895;48.804;9.386;2023-08-08T05:29:01;15.10;99.90
44223;DHT22;29895;48.804;9.386;2023-08-08T05:31:26;15.30;99.90
44223;DHT22;29895;48.804;9.386;2023-08-08T05:33:52;15.60;99.90
44223;DHT22;29895;48.804;9.386;2023-08-08T05:36:18;15.80;99.90
44223;DHT22;29895;48.804;9.386;2023-08-08T05:38:44;16.10;99.90
44223;DHT22;29895;48.804;9.386;2023-08-08T05:41:10;16.30;99.90
44223;DHT22;29895;48.804;9.386;2023-08-08T05:43:36;16.40;99.90
44223;DHT22;29895;48.804;9.386;2023-08-08T05:46:02;16.60;99.90
44223;DHT22;29895;48.804;9.386;2023-08-08T05:48:27;16.80;99.90
44223;DHT22;29895;48.804;9.386;2023-08-08T05:50:53;16.80;99.90
44223;DHT22;29895;48.804;9.386;2023-08-08T05:53:19;16.70;99.90
44223;DHT22;29895;48.804;9.386;2023-08-08T05:55:44;17.00;99.90
44223;DHT22;29895;48.804;9.386;2023-08-08T05:58:10;17.20;99.90
44223;DHT22;29895;48.804;9.386;2023-08-08T06:00:36;17.60;99.90
44223;DHT22;29895;48.804;9.386;2023-08-08T06:03:01;17.50;99.90
44223;DHT22;29895;48.804;9.386;2023-08-08T06:05:27;17.80;99.90
44223;DHT22;29895;48.804;9.386;2023-08-08T06:07:54;18.00;99.90
44223;DHT22;29895;48.804;9.386;2023-08-08T06:10:21;18.40;99.90
44223;DHT22;29895;48.804;9.386;2023-08-08T06:12:46;18.70;99.90
44223;DHT22;29895;48.804;9.386;2023-08-08T06:15:12;18.90;99.90
44223;DHT22;29895;48.804;9.386;2023-08-08T06:17:38;19.10;99.90
44223;DHT22;29895;48.804;9.386;2023-08-08T06:20:04;19.30;99.90
44223;DHT22;29895;48.804;9.386;2023-08-08T06:22:32;19.50;99.90
44223;DHT22;29895;48.804;9.386;2023-08-08T06:24:58;19.90;99.90
44223;DHT22;29895;48.804;9.386;2023-08-08T06:27:23;20.20;99.90
44223;DHT22;29895;48.804;9.386;2023-08-08T06:29:49;20.20;99.90
44223;DHT22;29895;48.804;9.386;2023-08-08T06:32:14;20.20;99.90
44223;DHT22;29895;48.804;9.386;2023-08-08T06:34:40;20.20;99.90
44223;DHT22;29895;48.804;9.386;2023-08-08T06:37:05;20.30;99.90
44223;DHT22;29895;48.804;9.386;2023-08-08T06:39:31;20.40;99.90
44223;DHT22;29895;48.804;9.386;2023-08-08T06:41:57;20.40;99.90
44223;DHT22;29895;48.804;9.386;2023-08-08T06:44:23;20.40;99.90
44223;DHT22;29895;48.804;9.386;2023-08-08T06:46:48;20.40;99.90
44223;DHT22;29895;48.804;9.386;2023-08-08T06:49:14;20.40;99.90
44223;DHT22;29895;48.804;9.386;2023-08-08T06:51:40;20.40;99.90
44223;DHT22;29895;48.804;9.386;2023-08-08T06:54:05;20.50;99.90
44223;DHT22;29895;48.804;9.386;2023-08-08T06:56:33;20.50;99.90
44223;DHT22;29895;48.804;9.386;2023-08-08T06:58:58;20.30;99.90
44223;DHT22;29895;48.804;9.386;2023-08-08T07:01:24;20.20;99.90
44223;DHT22;29895;48.804;9.386;2023-08-08T07:03:50;20.30;99.90
44223;DHT22;29895;48.804;9.386;2023-08-08T07:06:17;20.50;99.90
44223;DHT22;29895;48.804;9.386;2023-08-08T07:08:43;20.70;99.90
44223;DHT22;29895;48.804;9.386;2023-08-08T07:11:08;21.00;99.90
44223;DHT22;29895;48.804;9.386;2023-08-08T07:13:34;21.30;99.90
44223;DHT22;29895;48.804;9.386;2023-08-08T07:16:00;21.40;99.90
44223;DHT22;29895;48.804;9.386;2023-08-08T07:18:26;21.50;99.90
44223;DHT22;29895;48.804;9.386;2023-08-08T07:20:51;21.40;99.90
44223;DHT22;29895;48.804;9.386;2023-08-08T07:23:17;21.50;99.90
44223;DHT22;29895;48.804;9.386;2023-08-08T07:25:43;21.60;99.90
44223;DHT22;29895;48.804;9.386;2023-08-08T07:28:08;21.60;99.90
44223;DHT22;29895;48.804;9.386;2023-08-08T07:30:35;22.00;99.90
44223;DHT22;29895;48.804;9.386;2023-08-08T07:33:00;22.20;99.90
44223;DHT22;29895;48.804;9.386;2023-08-08T07:35:26;22.20;99.90
44223;DHT22;29895;48.804;9.386;2023-08-08T07:37:52;22.20;99.90
44223;DHT22;29895;48.804;9.386;2023-08-08T07:40:19;22.00;99.90
44223;DHT22;29895;48.804;9.386;2023-08-08T07:42:46;22.10;99.90
44223;DHT22;29895;48.804;9.386;2023-08-08T07:45:12;22.10;99.90
44223;DHT22;29895;48.804;9.386;2023-08-08T07:47:38;22.30;99.90
44223;DHT22;29895;48.804;9.386;2023-08-08T07:50:04;22.60;99.90
44223;DHT22;29895;48.804;9.386;2023-08-08T07:52:35;22.90;99.90
44223;DHT22;29895;48.804;9.386;2023-08-08T07:55:02;23.00;99.90
44223;DHT22;29895;48.804;9.386;2023-08-08T07:57:28;23.30;99.90
44223;DHT22;29895;48.804;9.386;2023-08-08T07:59:55;23.50;99.90
44223;DHT22;29895;48.804;9.386;2023-08-08T08:02:21;23.60;99.90
44223;DHT22;29895;48.804;9.386;2023-08-08T08:04:47;23.70;99.90
44223;DHT22;29895;48.804;9.386;2023-08-08T08:07:12;23.80;99.90
44223;DHT22;29895;48.804;9.386;2023-08-08T08:09:38;24.00;99.60
44223;DHT22;29895;48.804;9.386;2023-08-08T08:12:04;24.20;99.10
44223;DHT22;29895;48.804;9.386;2023-08-08T08:14:30;24.20;98.50
44223;DHT22;29895;48.804;9.386;2023-08-08T08:16:56;24.00;98.60
44223;DHT22;29895;48.804;9.386;2023-08-08T08:19:21;23.50;98.50
44223;DHT22;29895;48.804;9.386;2023-08-08T08:21:47;22.90;99.20
44223;DHT22;29895;48.804;9.386;2023-08-08T08:24:12;22.90;99.90
44223;DHT22;29895;48.804;9.386;2023-08-08T08:26:38;22.70;99.50
44223;DHT22;29895;48.804;9.386;2023-08-08T08:29:04;22.50;99.60
44223;DHT22;29895;48.804;9.386;2023-08-08T08:31:29;22.30;99.30
44223;DHT22;29895;48.804;9.386;2023-08-08T08:33:55;22.30;99.40
44223;DHT22;29895;48.804;9.386;2023-08-08T08:36:21;22.20;99.70
44223;DHT22;29895;48.804;9.386;2023-08-08T08:38:47;22.30;99.90
44223;DHT22;29895;48.804;9.386;2023-08-08T08:41:17;22.30;99.90
44223;DHT22;29895;48.804;9.386;2023-08-08T08:43:44;22.40;99.90
44223;DHT22;29895;48.804;9.386;2023-08-08T08:46:11;22.50;99.20
44223;DHT22;29895;48.804;9.386;2023-08-08T08:48:37;22.50;99.00
44223;DHT22;29895;48.804;9.386;2023-08-08T08:51:03;22.30;99.60
44223;DHT22;29895;48.804;9.386;2023-08-08T08:53:29;22.30;99.60
44223;DHT22;29895;48.804;9.386;2023-08-08T08:55:56;22.30;98.90
44223;DHT22;29895;48.804;9.386;2023-08-08T08:58:24;22.20;99.80
44223;DHT22;29895;48.804;9.386;2023-08-08T09:00:51;22.40;99.50
44223;DHT22;29895;48.804;9.386;2023-08-08T09:03:17;22.60;99.40
44223;DHT22;29895;48.804;9.386;2023-08-08T09:05:43;22.50;99.90
44223;DHT22;29895;48.804;9.386;2023-08-08T09:08:10;22.30;99.60
44223;DHT22;29895;48.804;9.386;2023-08-08T09:10:38;22.40;99.90
44223;DHT22;29895;48.804;9.386;2023-08-08T09:13:04;22.80;99.80
44223;DHT22;29895;48.804;9.386;2023-08-08T09:15:31;23.20;99.00
44223;DHT22;29895;48.804;9.386;2023-08-08T09:17:57;23.30;98.10
44223;DHT22;29895;48.804;9.386;2023-08-08T09:20:22;23.60;98.20
44223;DHT22;29895;48.804;9.386;2023-08-08T09:22:48;24.00;97.80
44223;DHT22;29895;48.804;9.386;2023-08-08T09:25:14;23.80;97.20
44223;DHT22;29895;48.804;9.386;2023-08-08T09:27:41;23.40;97.30
44223;DHT22;29895;48.804;9.386;2023-08-08T09:30:07;23.40;97.20
44223;DHT22;29895;48.804;9.386;2023-08-08T09:32:34;23.60;96.50
44223;DHT22;29895;48.804;9.386;2023-08-08T09:35:00;23.70;97.00
44223;DHT22;29895;48.804;9.386;2023-08-08T09:37:27;23.70;98.00
44223;DHT22;29895;48.804;9.386;2023-08-08T09:40:00;23.80;97.10
44223;DHT22;29895;48.804;9.386;2023-08-08T09:42:28;24.00;97.20
44223;DHT22;29895;48.804;9.386;2023-08-08T09:44:56;24.00;96.60
44223;DHT22;29895;48.804;9.386;2023-08-08T09:47:23;23.80;96.50
44223;DHT22;29895;48.804;9.386;2023-08-08T09:49:50;23.80;96.40
44223;DHT22;29895;48.804;9.386;2023-08-08T09:52:16;23.60;95.60
44223;DHT22;29895;48.804;9.386;2023-08-08T09:54:42;23.40;96.20
44223;DHT22;29895;48.804;9.386;2023-08-08T09:57:09;23.70;96.00
44223;DHT22;29895;48.804;9.386;2023-08-08T09:59:35;23.90;95.80
44223;DHT22;29895;48.804;9.386;2023-08-08T10:02:02;24.20;96.00
44223;DHT22;29895;48.804;9.386;2023-08-08T10:04:27;24.40;96.30
44223;DHT22;29895;48.804;9.386;2023-08-08T10:06:53;24.60;95.70
44223;DHT22;29895;48.804;9.386;2023-08-08T10:09:19;24.60;95.70
44223;DHT22;29895;48.804;9.386;2023-08-08T10:11:46;24.60;95.20
44223;DHT22;29895;48.804;9.386;2023-08-08T10:14:12;24.70;95.20
44223;DHT22;29895;48.804;9.386;2023-08-08T10:16:41;24.90;94.80
44223;DHT22;29895;48.804;9.386;2023-08-08T10:19:07;24.90;94.20
44223;DHT22;29895;48.804;9.386;2023-08-08T10:21:44;24.70;94.00
44223;DHT22;29895;48.804;9.386;2023-08-08T10:24:10;24.80;94.40
44223;DHT22;29895;48.804;9.386;2023-08-08T10:26:57;25.20;94.00
44223;DHT22;29895;48.804;9.386;2023-08-08T10:29:26;25.40;93.00
44223;DHT22;29895;48.804;9.386;2023-08-08T10:32:03;25.10;92.50
44223;DHT22;29895;48.804;9.386;2023-08-08T10:34:41;24.80;93.20
44223;DHT22;29895;48.804;9.386;2023-08-08T10:37:15;24.90;93.20
44223;DHT22;29895;48.804;9.386;2023-08-08T10:40:00;25.30;93.80
44223;DHT22;29895;48.804;9.386;2023-08-08T10:42:31;25.40;92.60
44223;DHT22;29895;48.804;9.386;2023-08-08T10:45:01;25.10;91.80
44223;DHT22;29895;48.804;9.386;2023-08-08T10:47:32;24.70;91.50
44223;DHT22;29895;48.804;9.386;2023-08-08T10:50:10;24.70;91.80
44223;DHT22;29895;48.804;9.386;2023-08-08T10:52:55;24.70;92.10
44223;DHT22;29895;48.804;9.386;2023-08-08T10:55:37;24.70;91.50
44223;DHT22;29895;48.804;9.386;2023-08-08T10:58:07;24.50;91.10
44223;DHT22;29895;48.804;9.386;2023-08-08T11:00:38;24.60;90.70
44223;DHT22;29895;48.804;9.386;2023-08-08T11:03:07;24.40;91.00
44223;DHT22;29895;48.804;9.386;2023-08-08T11:05:36;24.30;91.40
44223;DHT22;29895;48.804;9.386;2023-08-08T11:08:03;24.10;91.10
44223;DHT22;29895;48.804;9.386;2023-08-08T11:10:34;24.10;91.40
44223;DHT22;29895;48.804;9.386;2023-08-08T11:13:02;24.00;91.90
44223;DHT22;29895;48.804;9.386;2023-08-08T11:15:35;23.80;91.30
44223;DHT22;29895;48.804;9.386;2023-08-08T11:18:01;23.50;91.00
44223;DHT22;29895;48.804;9.386;2023-08-08T11:20:32;23.40;91.70
44223;DHT22;29895;48.804;9.386;2023-08-08T11:22:58;23.20;91.10
44223;DHT22;29895;48.804;9.386;2023-08-08T11:25:28;23.40;92.00
44223;DHT22;29895;48.804;9.386;2023-08-08T11:27:55;23.40;91.80
44223;DHT22;29895;48.804;9.386;2023-08-08T11:30:21;23.70;91.70
44223;DHT22;29895;48.804;9.386;2023-08-08T11:32:48;24.10;90.40
44223;DHT22;29895;48.804;9.386;2023-08-08T11:35:20;24.50;89.20
44223;DHT22;29895;48.804;9.386;2023-08-08T11:37:47;24.80;88.00
44223;DHT22;29895;48.804;9.386;2023-08-08T11:40:14;25.10;88.60
44223;DHT22;29895;48.804;9.386;2023-08-08T11:42:41;25.70;87.90
44223;DHT22;29895;48.804;9.386;2023-08-08T11:45:09;25.90;86.40
44223;DHT22;29895;48.804;9.386;2023-08-08T11:47:35;25.60;84.60
44223;DHT22;29895;48.804;9.386;2023-08-08T11:50:06;25.80;83.80
44223;DHT22;29895;48.804;9.386;2023-08-08T11:52:32;26.00;85.30
44223;DHT22;29895;48.804;9.386;2023-08-08T11:54:59;26.10;85.40
44223;DHT22;29895;48.804;9.386;2023-08-08T11:57:28;26.30;84.40
44223;DHT22;29895;48.804;9.386;2023-08-08T11:59:54;26.40;84.10
44223;DHT22;29895;48.804;9.386;2023-08-08T12:02:20;26.10;85.20
44223;DHT22;29895;48.804;9.386;2023-08-08T12:04:46;26.10;84.00
44223;DHT22;29895;48.804;9.386;2023-08-08T12:07:12;25.80;80.00
44223;DHT22;29895;48.804;9.386;2023-08-08T12:09:38;25.30;80.60
44223;DHT22;29895;48.804;9.386;2023-08-08T12:12:04;25.20;81.20
44223;DHT22;29895;48.804;9.386;2023-08-08T12:14:36;25.30;81.10
44223;DHT22;29895;48.804;9.386;2023-08-08T12:17:02;25.30;80.90
44223;DHT22;29895;48.804;9.386;2023-08-08T12:19:28;25.10;82.50
44223;DHT22;29895;48.804;9.386;2023-08-08T12:21:54;25.00;83.10
44223;DHT22;29895;48.804;9.386;2023-08-08T12:24:20;25.10;84.40
44223;DHT22;29895;48.804;9.386;2023-08-08T12:26:46;25.50;84.90
44223;DHT22;29895;48.804;9.386;2023-08-08T12:29:12;25.90;84.10
44223;DHT22;29895;48.804;9.386;2023-08-08T12:31:38;26.00;84.70
44223;DHT22;29895;48.804;9.386;2023-08-08T12:34:04;26.00;81.00
44223;DHT22;29895;48.804;9.386;2023-08-08T12:36:30;25.90;80.90
44223;DHT22;29895;48.804;9.386;2023-08-08T12:38:56;25.60;81.40
44223;DHT22;29895;48.804;9.386;2023-08-08T12:41:22;25.30;81.70
44223;DHT22;29895;48.804;9.386;2023-08-08T12:43:48;25.20;82.80
44223;DHT22;29895;48.804;9.386;2023-08-08T12:46:15;24.90;83.30
44223;DHT22;29895;48.804;9.386;2023-08-08T12:48:40;24.90;81.40
44223;DHT22;29895;48.804;9.386;2023-08-08T12:51:06;24.70;80.90
44223;DHT22;29895;48.804;9.386;2023-08-08T12:53:34;24.40;82.80
44223;DHT22;29895;48.804;9.386;2023-08-08T12:56:00;24.70;84.70
44223;DHT22;29895;48.804;9.386;2023-08-08T12:58:25;25.00;83.80
44223;DHT22;29895;48.804;9.386;2023-08-08T13:00:51;24.90;82.60
44223;DHT22;29895;48.804;9.386;2023-08-08T13:03:17;24.80;83.20
44223;DHT22;29895;48.804;9.386;2023-08-08T13:05:43;24.80;84.30
44223;DHT22;29895;48.804;9.386;2023-08-08T13:08:09;24.80;84.40
44223;DHT22;29895;48.804;9.386;2023-08-08T13:10:35;24.70;85.20
44223;DHT22;29895;48.804;9.386;2023-08-08T13:13:01;24.70;85.60
44223;DHT22;29895;48.804;9.386;2023-08-08T13:15:27;24.60;85.20
44223;DHT22;29895;48.804;9.386;2023-08-08T13:17:52;24.70;85.70
44223;DHT22;29895;48.804;9.386;2023-08-08T13:20:18;25.00;85.70
44223;DHT22;29895;48.804;9.386;2023-08-08T13:22:44;25.20;85.30
44223;DHT22;29895;48.804;9.386;2023-08-08T13:25:09;25.10;84.20
44223;DHT22;29895;48.804;9.386;2023-08-08T13:27:35;24.90;83.70
44223;DHT22;29895;48.804;9.386;2023-08-08T13:30:02;25.00;84.30
44223;DHT22;29895;48.804;9.386;2023-08-08T13:32:28;24.80;84.30
44223;DHT22;29895;48.804;9.386;2023-08-08T13:34:53;24.50;85.00
44223;DHT22;29895;48.804;9.386;2023-08-08T13:37:19;24.10;85.70
44223;DHT22;29895;48.804;9.386;2023-08-08T13:39:45;23.80;87.60
44223;DHT22;29895;48.804;9.386;2023-08-08T13:42:10;23.70;89.20
44223;DHT22;29895;48.804;9.386;2023-08-08T13:44:36;23.70;89.00
44223;DHT22;29895;48.804;9.386;2023-08-08T13:47:02;23.70;90.00
44223;DHT22;29895;48.804;9.386;2023-08-08T13:49:28;23.50;90.30
44223;DHT22;29895;48.804;9.386;2023-08-08T13:51:54;23.40;90.40
44223;DHT22;29895;48.804;9.386;2023-08-08T13:54:20;23.40;91.30
44223;DHT22;29895;48.804;9.386;2023-08-08T13:56:46;23.50;91.30
44223;DHT22;29895;48.804;9.386;2023-08-08T13:59:12;23.70;91.80
44223;DHT22;29895;48.804;9.386;2023-08-08T14:01:37;23.90;91.20
44223;DHT22;29895;48.804;9.386;2023-08-08T14:04:03;24.10;90.20
44223;DHT22;29895;48.804;9.386;2023-08-08T14:06:29;24.30;90.80
44223;DHT22;29895;48.804;9.386;2023-08-08T14:08:56;24.60;91.10
44223;DHT22;29895;48.804;9.386;2023-08-08T14:11:22;24.60;90.70
44223;DHT22;29895;48.804;9.386;2023-08-08T14:13:47;24.80;91.00
44223;DHT22;29895;48.804;9.386;2023-08-08T14:16:13;24.80;90.50
44223;DHT22;29895;48.804;9.386;2023-08-08T14:18:39;24.60;88.10
44223;DHT22;29895;48.804;9.386;2023-08-08T14:21:05;24.50;89.40
44223;DHT22;29895;48.804;9.386;2023-08-08T14:23:31;24.60;90.10
44223;DHT22;29895;48.804;9.386;2023-08-08T14:25:56;24.40;89.10
44223;DHT22;29895;48.804;9.386;2023-08-08T14:28:22;24.20;88.30
44223;DHT22;29895;48.804;9.386;2023-08-08T14:30:48;24.00;89.70
44223;DHT22;29895;48.804;9.386;2023-08-08T14:33:15;23.90;89.80
44223;DHT22;29895;48.804;9.386;2023-08-08T14:35:41;23.60;90.20
44223;DHT22;29895;48.804;9.386;2023-08-08T14:38:07;23.40;90.60
44223;DHT22;29895;48.804;9.386;2023-08-08T14:40:33;23.20;91.20
44223;DHT22;29895;48.804;9.386;2023-08-08T14:43:00;23.00;91.70
44223;DHT22;29895;48.804;9.386;2023-08-08T14:45:26;23.00;91.70
44223;DHT22;29895;48.804;9.386;2023-08-08T14:47:52;22.90;91.40
44223;DHT22;29895;48.804;9.386;2023-08-08T14:50:18;22.80;91.80
44223;DHT22;29895;48.804;9.386;2023-08-08T14:52:44;22.90;91.90
44223;DHT22;29895;48.804;9.386;2023-08-08T14:55:10;23.00;92.10
44223;DHT22;29895;48.804;9.386;2023-08-08T14:57:35;23.00;92.30
44223;DHT22;29895;48.804;9.386;2023-08-08T15:00:01;22.90;91.80
44223;DHT22;29895;48.804;9.386;2023-08-08T15:02:27;22.90;91.90
44223;DHT22;29895;48.804;9.386;2023-08-08T15:04:52;22.90;92.10
44223;DHT22;29895;48.804;9.386;2023-08-08T15:07:19;22.90;92.60
44223;DHT22;29895;48.804;9.386;2023-08-08T15:09:44;22.90;92.60
44223;DHT22;29895;48.804;9.386;2023-08-08T15:12:11;22.80;92.90
44223;DHT22;29895;48.804;9.386;2023-08-08T15:14:37;22.80;93.20
44223;DHT22;29895;48.804;9.386;2023-08-08T15:17:03;22.80;93.30
44223;DHT22;29895;48.804;9.386;2023-08-08T15:19:29;22.90;93.40
44223;DHT22;29895;48.804;9.386;2023-08-08T15:21:54;23.10;92.90
44223;DHT22;29895;48.804;9.386;2023-08-08T15:24:20;23.40;92.80
44223;DHT22;29895;48.804;9.386;2023-08-08T15:26:46;23.50;92.30